Time;durP1;ratioP1;P1;durP2;ratioP2;P2;SDS_P1;SDS_P2;PMS_P1;PMS_P2;Temp;Humidity;BMP_temperature;BMP_pressure;BME280_temperature;BME280_humidity;BME280_pressure;Samples;Min_cycle;Max_cycle;Signal;HPM_P1;HPM_P2
2023/05/24 00:01:15;;;;;;;21.05;4.43;;;9.80;45.70;;;;;;5112758;28;20430;-72
2023/05/24 00:03:41;;;;;;;15.50;4.18;;;9.80;46.50;;;;;;5111779;28;20398;-74
2023/05/24 00:06:06;;;;;;;22.67;4.10;;;9.70;46.60;;;;;;5111994;28;20400;-73
2023/05/24 00:08:33;;;;;;;15.80;4.30;;;9.70;46.80;;;;;;5112932;28;20386;-72
2023/05/24 00:10:59;;;;;;;17.88;4.43;;;9.70;47.10;;;;;;5112626;28;20399;-72
2023/05/24 00:13:25;;;;;;;14.05;4.18;;;9.70;46.90;;;;;;5112522;28;20529;-73
2023/05/24 00:15:51;;;;;;;13.95;3.47;;;9.70;47.40;;;;;;5111577;28;20435;-73
2023/05/24 00:18:17;;;;;;;17.25;3.90;;;9.60;47.80;;;;;;5112744;28;20415;-73
2023/05/24 00:20:43;;;;;;;15.68;3.97;;;9.60;48.10;;;;;;5112545;28;20400;-72
2023/05/24 00:23:09;;;;;;;15.20;4.50;;;9.60;49.00;;;;;;5113126;28;20873;-72
2023/05/24 00:25:34;;;;;;;19.43;4.90;;;9.40;49.70;;;;;;5112750;28;20387;-73
2023/05/24 00:28:00;;;;;;;14.23;4.07;;;9.50;49.50;;;;;;5112739;28;20875;-72
2023/05/24 00:30:26;;;;;;;18.47;4.33;;;9.50;49.80;;;;;;5112547;28;20410;-73
2023/05/24 00:32:51;;;;;;;13.88;4.15;;;9.40;49.90;;;;;;5112350;28;20902;-73
2023/05/24 00:35:17;;;;;;;18.20;4.20;;;9.40;50.00;;;;;;5112618;28;20463;-73
2023/05/24 00:37:44;;;;;;;16.83;4.03;;;9.40;50.50;;;;;;5111425;28;20376;-73
2023/05/24 00:40:10;;;;;;;17.77;4.70;;;9.30;50.50;;;;;;5112474;28;20400;-73
2023/05/24 00:42:36;;;;;;;15.52;4.60;;;9.30;50.70;;;;;;5112057;28;20372;-72
2023/05/24 00:45:02;;;;;;;20.95;5.10;;;9.30;51.10;;;;;;5112196;28;20441;-73
2023/05/24 00:47:28;;;;;;;19.50;4.60;;;9.20;51.60;;;;;;5112106;28;20737;-72
2023/05/24 00:49:53;;;;;;;17.37;4.97;;;9.20;52.40;;;;;;5111989;28;20827;-72
2023/05/24 00:52:19;;;;;;;21.13;4.50;;;9.10;52.90;;;;;;5111702;28;20380;-73
2023/05/24 00:54:45;;;;;;;19.35;4.60;;;9.10;53.40;;;;;;5112056;28;20384;-73
2023/05/24 00:57:12;;;;;;;17.17;4.77;;;9.10;54.20;;;;;;5111892;28;20895;-74
2023/05/24 00:59:39;;;;;;;13.45;4.10;;;9.00;54.80;;;;;;5112021;28;20605;-72
2023/05/24 01:02:04;;;;;;;15.55;4.50;;;9.10;55.10;;;;;;5111566;28;20756;-74
2023/05/24 01:04:31;;;;;;;14.35;4.90;;;9.10;54.80;;;;;;5111693;28;20384;-72
2023/05/24 01:07:08;;;;;;;13.65;4.55;;;8.80;57.90;;;;;;5112111;28;20426;-73
2023/05/24 01:09:49;;;;;;;17.63;4.55;;;8.80;57.20;;;;;;5112113;28;20409;-74
2023/05/24 01:12:33;;;;;;;18.45;4.57;;;8.90;57.40;;;;;;5111540;28;20757;-73
2023/05/24 01:15:16;;;;;;;16.83;4.57;;;9.00;55.90;;;;;;5112022;28;20376;-73
2023/05/24 01:18:01;;;;;;;14.85;4.80;;;9.10;54.90;;;;;;5111919;28;20484;-74
2023/05/24 01:20:31;;;;;;;21.55;4.38;;;8.80;57.70;;;;;;5111683;28;20460;-73
2023/05/24 01:23:27;;;;;;;17.85;4.80;;;8.80;57.40;;;;;;5111392;28;20388;-73
2023/05/24 01:26:12;;;;;;;16.85;4.75;;;8.50;60.20;;;;;;5111695;28;20376;-73
2023/05/24 01:28:38;;;;;;;17.42;4.82;;;8.40;61.70;;;;;;5111676;28;20384;-73
2023/05/24 01:31:05;;;;;;;16.10;5.43;;;8.50;61.50;;;;;;5111553;28;20391;-74
2023/05/24 01:33:31;;;;;;;18.95;4.50;;;8.30;64.10;;;;;;5111598;28;20384;-73
2023/05/24 01:35:57;;;;;;;16.10;4.90;;;8.40;63.30;;;;;;5112050;28;20756;-74
2023/05/24 01:38:22;;;;;;;18.17;4.78;;;8.30;63.50;;;;;;5112424;28;20391;-74
2023/05/24 01:40:57;;;;;;;18.30;4.90;;;8.30;64.20;;;;;;5111927;28;20491;-73
2023/05/24 01:43:32;;;;;;;17.30;4.53;;;8.30;65.30;;;;;;5111683;28;20533;-73
2023/05/24 01:46:04;;;;;;;20.27;5.07;;;8.30;65.70;;;;;;5111748;28;20372;-73
2023/05/24 01:48:41;;;;;;;25.30;4.90;;;8.40;63.80;;;;;;5111396;28;20372;-73
2023/05/24 01:51:10;;;;;;;17.80;4.83;;;8.30;64.60;;;;;;5111207;28;20853;-74
2023/05/24 01:53:45;;;;;;;19.80;4.70;;;8.30;64.80;;;;;;5111514;28;20384;-73
2023/05/24 01:56:12;;;;;;;17.43;4.50;;;8.10;66.10;;;;;;5111378;28;20376;-73
2023/05/24 01:58:42;;;;;;;20.65;4.50;;;8.20;66.10;;;;;;5111432;28;20479;-73
2023/05/24 02:01:08;;;;;;;20.08;5.13;;;8.30;65.80;;;;;;5111265;28;20453;-73
2023/05/24 02:03:36;;;;;;;18.75;4.40;;;8.40;63.90;;;;;;5111347;28;20869;-73
2023/05/24 02:06:02;;;;;;;19.80;4.85;;;8.40;63.50;;;;;;5111368;28;20376;-73
2023/05/24 02:08:28;;;;;;;21.70;4.90;;;8.30;63.70;;;;;;5111357;28;20518;-74
2023/05/24 02:10:53;;;;;;;16.30;4.47;;;8.20;64.20;;;;;;5113245;28;20391;-73
2023/05/24 02:13:19;;;;;;;15.43;4.80;;;8.00;66.70;;;;;;5120991;28;20380;-74
2023/05/24 02:15:45;;;;;;;21.70;4.90;;;7.80;68.00;;;;;;5121280;28;20687;-74
2023/05/24 02:18:11;;;;;;;22.42;5.60;;;7.70;70.60;;;;;;5120766;28;20376;-74
2023/05/24 02:20:37;;;;;;;17.88;4.93;;;7.50;72.80;;;;;;5120735;28;20400;-74
2023/05/24 02:23:03;;;;;;;18.90;5.20;;;7.40;75.00;;;;;;5120546;28;20962;-73
2023/05/24 02:25:30;;;;;;;25.67;5.40;;;7.30;76.80;;;;;;5121685;28;20372;-73
2023/05/24 02:27:56;;;;;;;23.17;5.77;;;7.20;78.40;;;;;;5122169;28;20372;-74
2023/05/24 02:30:21;;;;;;;23.08;5.10;;;7.50;78.50;;;;;;5127628;28;20384;-74
2023/05/24 02:32:47;;;;;;;22.77;5.63;;;7.50;75.60;;;;;;5127484;28;20392;-73
2023/05/24 02:35:13;;;;;;;19.55;5.97;;;7.40;76.60;;;;;;5123516;28;20398;-73
2023/05/24 02:37:38;;;;;;;15.90;5.43;;;7.50;76.80;;;;;;5125667;28;20380;-73
2023/05/24 02:40:05;;;;;;;20.10;5.22;;;7.40;76.30;;;;;;5132962;28;20428;-73
2023/05/24 02:42:30;;;;;;;15.60;4.97;;;7.50;78.20;;;;;;5133842;28;20383;-73
2023/05/24 02:44:56;;;;;;;19.17;5.22;;;7.80;74.50;;;;;;5122129;28;20384;-73
2023/05/24 02:47:21;;;;;;;15.57;5.13;;;7.80;73.30;;;;;;5120743;28;20463;-73
2023/05/24 02:49:47;;;;;;;20.63;5.43;;;7.90;72.30;;;;;;5120851;28;20449;-72
2023/05/24 02:52:13;;;;;;;33.57;7.23;;;7.90;71.20;;;;;;5115694;28;20376;-73
2023/05/24 02:54:39;;;;;;;33.22;6.90;;;7.80;73.60;;;;;;5113036;28;20933;-74
2023/05/24 02:57:07;;;;;;;25.58;6.38;;;7.90;72.50;;;;;;5114513;28;20380;-73
2023/05/24 02:59:33;;;;;;;24.38;5.63;;;7.90;73.50;;;;;;5114302;28;20856;-74
2023/05/24 03:01:59;;;;;;;24.67;6.03;;;8.00;72.40;;;;;;5113317;28;20408;-73
2023/05/24 03:04:24;;;;;;;17.65;4.90;;;7.80;73.30;;;;;;5098748;28;20386;-73
2023/05/24 03:06:50;;;;;;;22.73;6.43;;;7.50;77.10;;;;;;5096548;28;20727;-74
2023/05/24 03:09:16;;;;;;;21.27;6.03;;;7.30;80.10;;;;;;5114389;28;20736;-74
2023/05/24 03:11:41;;;;;;;22.67;6.13;;;7.40;80.70;;;;;;5114089;28;20737;-74
2023/05/24 03:14:09;;;;;;;21.30;5.93;;;7.20;81.50;;;;;;5114107;28;20373;-74
2023/05/24 03:16:35;;;;;;;19.08;6.03;;;7.30;83.40;;;;;;5113432;28;20755;-74
2023/05/24 03:19:01;;;;;;;16.90;5.35;;;7.40;81.30;;;;;;5114108;28;20463;-71
2023/05/24 03:21:26;;;;;;;24.48;6.00;;;7.70;80.80;;;;;;5114265;28;20432;-73
2023/05/24 03:23:52;;;;;;;22.83;6.32;;;7.80;78.70;;;;;;5113902;28;20479;-72
2023/05/24 03:26:17;;;;;;;20.75;5.97;;;7.90;77.30;;;;;;5112686;28;20384;-72
2023/05/24 03:28:44;;;;;;;18.38;5.60;;;7.80;77.70;;;;;;5113574;28;20381;-74
2023/05/24 03:31:09;;;;;;;23.20;6.37;;;7.90;78.20;;;;;;5113683;28;20384;-74
2023/05/24 03:33:35;;;;;;;21.33;5.82;;;8.10;76.70;;;;;;5113632;28;20730;-73
2023/05/24 03:36:03;;;;;;;18.25;6.10;;;8.00;75.00;;;;;;5113594;28;20460;-73
2023/05/24 03:38:28;;;;;;;23.27;6.40;;;7.70;78.20;;;;;;5113619;28;20915;-72
2023/05/24 03:40:54;;;;;;;19.13;5.90;;;7.40;81.60;;;;;;5113549;28;20408;-73
2023/05/24 03:43:20;;;;;;;19.65;5.90;;;7.50;81.70;;;;;;5113730;28;20376;-75
2023/05/24 03:45:46;;;;;;;22.48;7.70;;;7.40;83.40;;;;;;5113697;28;20404;-75
2023/05/24 03:48:12;;;;;;;22.07;6.33;;;7.30;84.40;;;;;;5113725;28;20384;-73
2023/05/24 03:50:37;;;;;;;20.20;6.25;;;7.60;83.70;;;;;;5113942;28;20399;-73
2023/05/24 03:53:03;;;;;;;17.95;5.80;;;7.90;79.10;;;;;;5113533;28;20372;-73
2023/05/24 03:55:29;;;;;;;18.77;6.20;;;7.90;77.50;;;;;;5113924;28;20908;-75
2023/05/24 03:57:54;;;;;;;26.90;5.90;;;7.70;79.30;;;;;;5113472;28;20469;-72
2023/05/24 04:00:20;;;;;;;20.80;6.37;;;7.90;79.90;;;;;;5113447;28;20939;-74
2023/05/24 04:02:46;;;;;;;20.70;6.00;;;7.80;79.00;;;;;;5112794;28;20427;-74
2023/05/24 04:05:12;;;;;;;20.48;7.05;;;7.90;79.20;;;;;;5112956;28;20369;-74
2023/05/24 04:07:39;;;;;;;19.40;5.88;;;8.00;80.70;;;;;;5112887;28;20873;-74
2023/05/24 04:10:06;;;;;;;15.95;5.70;;;8.00;79.10;;;;;;5112953;28;20412;-73
2023/05/24 04:12:32;;;;;;;23.20;6.30;;;8.20;77.80;;;;;;5112726;28;20380;-75
2023/05/24 04:14:58;;;;;;;18.98;6.15;;;8.30;75.60;;;;;;5112959;28;20380;-73
2023/05/24 04:17:24;;;;;;;14.40;5.10;;;8.40;73.30;;;;;;5112769;28;20380;-73
2023/05/24 04:19:50;;;;;;;23.35;6.25;;;8.60;71.70;;;;;;5112633;28;20379;-75
2023/05/24 04:22:17;;;;;;;20.70;6.97;;;8.60;71.30;;;;;;5112219;28;20861;-74
2023/05/24 04:24:43;;;;;;;22.70;7.13;;;8.50;72.00;;;;;;5112420;28;20375;-74
2023/05/24 04:27:09;;;;;;;28.52;7.97;;;8.40;72.90;;;;;;5112286;28;20434;-73
2023/05/24 04:29:35;;;;;;;24.07;6.80;;;8.30;75.60;;;;;;5112407;28;20892;-75
2023/05/24 04:32:00;;;;;;;25.53;7.23;;;8.50;75.90;;;;;;5111148;28;20388;-74
2023/05/24 04:34:28;;;;;;;22.53;7.70;;;8.60;74.80;;;;;;5112203;28;20377;-72
2023/05/24 04:36:54;;;;;;;26.88;6.75;;;8.50;77.60;;;;;;5112226;28;20391;-72
2023/05/24 04:39:20;;;;;;;26.55;7.60;;;8.50;78.10;;;;;;5111732;28;20384;-72
2023/05/24 04:41:49;;;;;;;25.55;7.43;;;8.70;77.20;;;;;;5110421;28;20400;-72
2023/05/24 04:44:15;;;;;;;20.55;7.10;;;8.70;75.60;;;;;;5112171;28;20873;-73
2023/05/24 04:46:41;;;;;;;22.30;7.95;;;8.60;76.90;;;;;;5111932;28;20426;-73
2023/05/24 04:49:07;;;;;;;22.02;6.88;;;8.60;76.90;;;;;;5111914;28;20376;-74
2023/05/24 04:51:33;;;;;;;23.70;6.88;;;8.70;76.50;;;;;;5111888;28;20743;-76
2023/05/24 04:54:00;;;;;;;26.50;8.00;;;8.70;76.50;;;;;;5112377;28;20376;-73
2023/05/24 04:56:26;;;;;;;20.23;7.05;;;8.80;76.20;;;;;;5111291;28;20441;-75
2023/05/24 04:58:51;;;;;;;26.50;7.20;;;8.90;76.30;;;;;;5112774;28;20868;-76
2023/05/24 05:01:17;;;;;;;22.00;7.20;;;9.20;73.20;;;;;;5112211;28;20421;-74
2023/05/24 05:03:44;;;;;;;24.42;7.30;;;9.40;72.80;;;;;;5112210;28;20373;-74
2023/05/24 05:06:10;;;;;;;23.17;7.40;;;9.80;67.80;;;;;;5112090;28;20464;-75
2023/05/24 05:08:36;;;;;;;27.58;7.90;;;10.00;65.90;;;;;;5111940;28;20408;-73
2023/05/24 05:11:02;;;;;;;31.77;8.10;;;10.10;65.00;;;;;;5111828;28;20463;-74
2023/05/24 05:13:27;;;;;;;22.10;7.38;;;10.40;62.60;;;;;;5111852;28;20404;-74
2023/05/24 05:15:53;;;;;;;26.53;8.00;;;10.50;61.10;;;;;;5111627;28;20787;-74
2023/05/24 05:18:18;;;;;;;20.93;7.67;;;10.60;59.60;;;;;;5110399;28;20920;-74
2023/05/24 05:20:44;;;;;;;22.80;7.78;;;11.00;54.80;;;;;;5111466;28;20487;-74
2023/05/24 05:23:10;;;;;;;28.70;7.47;;;11.30;50.50;;;;;;5110284;28;20392;-75
2023/05/24 05:25:35;;;;;;;27.00;8.50;;;11.50;50.00;;;;;;5112494;28;20409;-76
2023/05/24 05:28:01;;;;;;;22.00;7.47;;;11.70;48.30;;;;;;5109742;28;20376;-75
2023/05/24 05:30:27;;;;;;;23.83;8.07;;;12.00;46.10;;;;;;5111765;28;20383;-74
2023/05/24 05:32:52;;;;;;;24.55;8.32;;;12.00;45.00;;;;;;5109704;28;20380;-76
2023/05/24 05:35:18;;;;;;;31.23;8.63;;;11.70;47.50;;;;;;5111347;28;20380;-73
2023/05/24 05:37:43;;;;;;;33.70;9.10;;;11.60;49.90;;;;;;5111143;28;20753;-75
2023/05/24 05:40:09;;;;;;;29.53;8.93;;;11.60;49.90;;;;;;5111271;28;20395;-72
2023/05/24 05:42:35;;;;;;;34.10;9.30;;;11.60;50.80;;;;;;5111310;28;20399;-74
2023/05/24 05:45:01;;;;;;;30.03;9.30;;;11.60;51.20;;;;;;5112376;28;20388;-75
2023/05/24 05:47:26;;;;;;;28.65;9.35;;;11.50;51.70;;;;;;5109637;28;20407;-72
2023/05/24 05:49:52;;;;;;;30.27;10.02;;;11.50;52.50;;;;;;5110991;28;20368;-74
2023/05/24 05:52:18;;;;;;;34.97;10.33;;;11.50;52.90;;;;;;5113173;28;20380;-74
2023/05/24 05:54:43;;;;;;;32.77;9.93;;;11.70;52.80;;;;;;5115493;28;20733;-75
2023/05/24 05:57:10;;;;;;;26.63;9.40;;;12.00;50.10;;;;;;5116984;28;20372;-74
2023/05/24 05:59:35;;;;;;;28.10;9.55;;;12.50;44.80;;;;;;5115468;28;20777;-73
2023/05/24 06:02:02;;;;;;;33.35;9.38;;;12.60;43.70;;;;;;5115374;28;20401;-74
2023/05/24 06:04:28;;;;;;;27.15;8.60;;;12.90;41.80;;;;;;5118104;28;20448;-73
2023/05/24 06:06:53;;;;;;;30.17;9.83;;;13.00;39.00;;;;;;5117584;28;20388;-73
2023/05/24 06:09:19;;;;;;;30.52;10.40;;;13.20;37.70;;;;;;5119689;28;20461;-75
2023/05/24 06:11:45;;;;;;;31.80;9.70;;;12.90;39.90;;;;;;5117902;28;20766;-73
2023/05/24 06:14:12;;;;;;;32.53;10.63;;;12.80;41.00;;;;;;5119580;27;20815;-73
2023/05/24 06:16:42;;;;;;;32.60;10.75;;;12.70;42.30;;;;;;5118839;28;20471;-73
2023/05/24 06:19:07;;;;;;;35.35;10.70;;;12.70;42.70;;;;;;5115384;28;20376;-73
2023/05/24 06:21:35;;;;;;;32.70;9.97;;;12.90;42.20;;;;;;5114745;28;20408;-73
2023/05/24 06:24:01;;;;;;;31.35;9.73;;;13.30;38.90;;;;;;5113928;28;20388;-74
2023/05/24 06:26:26;;;;;;;30.13;9.97;;;13.50;37.70;;;;;;5115431;28;20372;-72
2023/05/24 06:28:52;;;;;;;33.00;10.73;;;13.60;37.40;;;;;;5114898;28;20368;-74
2023/05/24 06:31:18;;;;;;;32.05;10.27;;;13.90;35.70;;;;;;5114892;28;20753;-73
2023/05/24 06:33:43;;;;;;;28.40;9.57;;;13.90;35.10;;;;;;5114421;28;20383;-73
2023/05/24 06:36:09;;;;;;;32.95;10.10;;;14.00;34.90;;;;;;5114356;28;20394;-75
2023/05/24 06:38:35;;;;;;;33.33;10.52;;;13.80;34.60;;;;;;5114428;28;20380;-74
2023/05/24 06:41:00;;;;;;;40.05;9.27;;;13.70;36.00;;;;;;5112701;28;20403;-74
2023/05/24 06:43:26;;;;;;;30.60;9.00;;;13.30;37.40;;;;;;5117499;28;20395;-73
2023/05/24 06:45:51;;;;;;;35.60;9.30;;;13.30;37.10;;;;;;5113951;28;20412;-73
2023/05/24 06:48:17;;;;;;;42.40;10.43;;;13.10;37.50;;;;;;5113910;28;20762;-73
2023/05/24 06:50:44;;;;;;;31.27;10.00;;;12.90;39.90;;;;;;5114683;28;20872;-74
2023/05/24 06:53:10;;;;;;;37.65;10.30;;;12.60;44.00;;;;;;5114447;28;20725;-73
2023/05/24 06:55:36;;;;;;;42.10;11.87;;;12.50;46.80;;;;;;5112670;28;20396;-73
2023/05/24 06:58:01;;;;;;;49.47;11.43;;;12.40;46.00;;;;;;5113877;28;20380;-74
2023/05/24 07:00:27;;;;;;;37.67;11.90;;;12.70;44.60;;;;;;5114164;28;20761;-73
2023/05/24 07:02:53;;;;;;;38.17;11.90;;;12.80;42.20;;;;;;5113418;28;20380;-73
2023/05/24 07:05:19;;;;;;;44.67;13.52;;;12.70;43.60;;;;;;5114409;28;20822;-73
2023/05/24 07:07:44;;;;;;;44.65;13.68;;;12.70;43.80;;;;;;5114325;28;20384;-74
2023/05/24 07:10:10;;;;;;;43.10;12.70;;;12.90;42.20;;;;;;5113968;28;20439;-73
2023/05/24 07:12:37;;;;;;;38.40;13.70;;;13.20;41.00;;;;;;5112764;28;20386;-72
2023/05/24 07:15:03;;;;;;;48.88;16.80;;;13.30;38.70;;;;;;5114244;28;20376;-74
2023/05/24 07:17:29;;;;;;;45.63;17.80;;;13.10;41.50;;;;;;5114226;28;20410;-75
2023/05/24 07:19:55;;;;;;;43.63;18.10;;;13.20;39.40;;;;;;5114082;28;20380;-74
2023/05/24 07:22:23;;;;;;;45.53;18.40;;;13.20;39.90;;;;;;5112447;28;20471;-74
2023/05/24 07:24:48;;;;;;;42.30;16.35;;;13.40;40.00;;;;;;5112534;28;20376;-73
2023/05/24 07:27:14;;;;;;;41.00;18.38;;;13.20;38.30;;;;;;5115313;28;20426;-73
2023/05/24 07:29:40;;;;;;;42.88;17.90;;;13.20;40.70;;;;;;5113795;28;20385;-74
2023/05/24 07:32:06;;;;;;;40.28;17.02;;;13.20;39.80;;;;;;5116595;28;20392;-75
2023/05/24 07:34:31;;;;;;;42.00;17.57;;;13.00;39.50;;;;;;5118131;28;20427;-76
2023/05/24 07:37:00;;;;;;;41.27;15.43;;;13.20;39.40;;;;;;5119745;28;20372;-74
2023/05/24 07:39:26;;;;;;;38.58;15.38;;;13.60;37.60;;;;;;5117427;28;20381;-75
2023/05/24 07:41:54;;;;;;;40.45;14.60;;;13.80;34.30;;;;;;5114349;28;20402;-74
2023/05/24 07:44:20;;;;;;;35.15;13.13;;;13.70;34.90;;;;;;5115115;28;20380;-74
2023/05/24 07:46:45;;;;;;;32.25;14.63;;;13.80;35.20;;;;;;5114449;28;20382;-74
2023/05/24 07:49:11;;;;;;;33.33;14.10;;;14.10;34.30;;;;;;5114193;28;20475;-74
2023/05/24 07:51:37;;;;;;;39.17;13.40;;;14.50;32.30;;;;;;5114405;27;20381;-74
2023/05/24 07:54:03;;;;;;;28.65;10.60;;;14.60;31.40;;;;;;5113591;27;20433;-74
2023/05/24 07:56:29;;;;;;;30.33;11.30;;;14.70;28.70;;;;;;5113322;28;20384;-74
2023/05/24 07:59:02;;;;;;;41.87;13.10;;;14.90;28.00;;;;;;5113498;28;20857;-73
2023/05/24 08:01:28;;;;;;;33.53;11.70;;;15.10;28.20;;;;;;5115143;28;20486;-75
2023/05/24 08:03:54;;;;;;;32.78;10.23;;;14.80;28.80;;;;;;5116235;27;20386;-73
2023/05/24 08:06:19;;;;;;;36.15;12.18;;;14.60;29.10;;;;;;5114990;28;20451;-74
2023/05/24 08:08:46;;;;;;;33.05;12.13;;;14.70;29.30;;;;;;5113373;28;20373;-73
2023/05/24 08:11:12;;;;;;;30.50;12.52;;;14.90;28.70;;;;;;5112835;28;20944;-74
2023/05/24 08:13:37;;;;;;;36.35;11.63;;;14.80;27.30;;;;;;5113292;28;20471;-73
2023/05/24 08:16:03;;;;;;;30.50;11.73;;;14.60;28.10;;;;;;5112497;28;20376;-73
2023/05/24 08:18:28;;;;;;;31.43;13.47;;;14.70;28.60;;;;;;5112878;28;20385;-73
2023/05/24 08:20:54;;;;;;;37.67;16.33;;;14.60;27.80;;;;;;5112699;28;20400;-72
2023/05/24 08:23:20;;;;;;;40.22;15.82;;;14.30;29.80;;;;;;5112336;28;20392;-75
2023/05/24 08:25:46;;;;;;;38.63;16.23;;;14.20;30.80;;;;;;5112588;28;20376;-73
2023/05/24 08:28:11;;;;;;;35.57;12.73;;;14.30;31.10;;;;;;5112755;28;20426;-74
2023/05/24 08:30:37;;;;;;;37.50;13.70;;;14.40;29.50;;;;;;5111498;28;20929;-74
2023/05/24 08:33:03;;;;;;;34.53;15.23;;;14.70;29.80;;;;;;5112906;27;20416;-73
2023/05/24 08:35:28;;;;;;;256.70;175.93;;;14.80;26.50;;;;;;5112817;28;20471;-73
2023/05/24 08:37:54;;;;;;;38.00;15.07;;;14.90;28.60;;;;;;5117317;28;20387;-73
2023/05/24 08:40:20;;;;;;;55.15;23.30;;;15.10;26.50;;;;;;5112219;28;20404;-74
2023/05/24 08:42:46;;;;;;;47.60;17.48;;;15.30;27.10;;;;;;5112319;28;20418;-74
2023/05/24 08:45:13;;;;;;;36.50;14.70;;;15.30;25.40;;;;;;5112100;28;20372;-71
2023/05/24 08:47:39;;;;;;;36.67;14.25;;;15.10;25.50;;;;;;5112190;28;20407;-76
2023/05/24 08:50:07;;;;;;;94.03;50.42;;;15.10;24.20;;;;;;5112128;28;20372;-72
2023/05/24 08:52:33;;;;;;;28.30;12.85;;;15.20;24.60;;;;;;5111821;28;20799;-73
2023/05/24 08:54:59;;;;;;;54.30;25.50;;;15.70;21.90;;;;;;5112150;28;20380;-74
2023/05/24 08:57:30;;;;;;;30.77;12.20;;;15.80;22.90;;;;;;5111992;28;20368;-73
2023/05/24 08:59:55;;;;;;;24.55;10.00;;;16.10;21.40;;;;;;5112188;28;20509;-73
2023/05/24 09:02:22;;;;;;;31.83;9.40;;;15.80;19.40;;;;;;5110238;28;20449;-73
2023/05/24 09:04:51;;;;;;;25.80;9.90;;;15.50;20.00;;;;;;5111171;28;20416;-74
2023/05/24 09:07:19;;;;;;;31.13;9.50;;;15.50;20.50;;;;;;5111607;28;20380;-74
2023/05/24 09:09:56;;;;;;;21.63;8.38;;;15.40;20.00;;;;;;5111380;28;20437;-73
2023/05/24 09:12:23;;;;;;;21.98;7.50;;;15.10;21.70;;;;;;5111207;28;20474;-75
2023/05/24 09:14:49;;;;;;;25.08;6.45;;;14.80;22.70;;;;;;5111682;28;20977;-73
2023/05/24 09:17:15;;;;;;;29.02;8.10;;;14.40;24.40;;;;;;5110458;28;20423;-73
2023/05/24 09:19:45;;;;;;;21.83;6.27;;;14.70;24.60;;;;;;5110333;28;20839;-73
2023/05/24 09:22:13;;;;;;;20.88;7.47;;;14.90;22.80;;;;;;5099292;22;20540;-72
2023/05/24 09:24:46;;;;;;;25.58;8.00;;;14.80;22.90;;;;;;5051242;28;20381;-71
2023/05/24 09:27:17;;;;;;;21.40;8.48;;;15.00;22.20;;;;;;5051452;28;20424;-70
2023/05/24 09:29:45;;;;;;;27.88;8.05;;;15.30;22.10;;;;;;5051292;28;20397;-71
2023/05/24 09:32:13;;;;;;;26.58;9.30;;;15.60;22.40;;;;;;5039056;28;20389;-70
2023/05/24 09:34:39;;;;;;;28.80;9.05;;;16.10;20.00;;;;;;5051317;28;20439;-71
2023/05/24 09:37:06;;;;;;;25.07;9.50;;;16.20;18.40;;;;;;5051683;28;20385;-69
2023/05/24 09:39:31;;;;;;;25.42;10.60;;;16.20;18.80;;;;;;5051301;28;20377;-71
2023/05/24 09:41:57;;;;;;;25.70;9.90;;;16.20;18.60;;;;;;5050950;28;20412;-71
2023/05/24 09:44:26;;;;;;;26.75;10.50;;;16.10;17.10;;;;;;5051328;28;20385;-71
2023/05/24 09:46:53;;;;;;;28.70;9.65;;;16.30;18.70;;;;;;5051219;28;20389;-71
2023/05/24 09:49:20;;;;;;;30.48;9.88;;;16.60;16.40;;;;;;5050800;28;20403;-70
2023/05/24 09:51:46;;;;;;;21.42;8.80;;;16.50;17.30;;;;;;5050377;28;20464;-71
2023/05/24 09:54:12;;;;;;;22.95;8.68;;;16.50;17.70;;;;;;5050798;28;20416;-71
2023/05/24 09:56:38;;;;;;;23.13;8.53;;;16.50;16.70;;;;;;5051112;28;20780;-70
2023/05/24 09:59:08;;;;;;;24.83;8.17;;;16.20;17.10;;;;;;5051549;28;20396;-71
2023/05/24 10:01:34;;;;;;;20.33;7.60;;;16.40;17.40;;;;;;5051215;28;20397;-71
2023/05/24 10:04:01;;;;;;;21.52;6.82;;;16.50;17.00;;;;;;5054849;28;20489;-71
2023/05/24 10:06:28;;;;;;;20.10;7.40;;;16.40;17.50;;;;;;5057965;28;20381;-71
2023/05/24 10:08:55;;;;;;;26.90;7.95;;;16.60;16.70;;;;;;5056767;28;20381;-70
2023/05/24 10:11:21;;;;;;;21.47;8.33;;;16.40;15.90;;;;;;5059655;28;20428;-70
2023/05/24 10:13:48;;;;;;;21.70;8.00;;;16.30;16.80;;;;;;5060954;28;20464;-70
2023/05/24 10:16:15;;;;;;;19.35;7.15;;;16.20;17.50;;;;;;5056315;28;20388;-72
2023/05/24 10:18:40;;;;;;;21.10;6.63;;;16.20;18.50;;;;;;5060440;28;20402;-70
2023/05/24 10:21:09;;;;;;;20.90;7.33;;;16.00;16.40;;;;;;5060240;28;20504;-70
2023/05/24 10:23:37;;;;;;;24.58;7.18;;;15.70;17.50;;;;;;5054804;28;20478;-71
2023/05/24 10:26:06;;;;;;;23.95;7.00;;;16.20;16.70;;;;;;5054080;28;20390;-70
2023/05/24 10:28:35;;;;;;;17.73;6.63;;;16.60;16.10;;;;;;5053710;28;20385;-71
2023/05/24 10:31:11;;;;;;;20.77;7.27;;;16.70;15.40;;;;;;5052460;28;20476;-72
2023/05/24 10:33:38;;;;;;;18.95;7.13;;;16.90;15.10;;;;;;5052318;28;20443;-71
2023/05/24 10:36:06;;;;;;;22.37;7.10;;;17.50;15.00;;;;;;5052530;28;20562;-71
2023/05/24 10:38:32;;;;;;;18.95;6.22;;;17.90;13.80;;;;;;5060743;28;20390;-71
2023/05/24 10:40:58;;;;;;;24.25;6.10;;;17.40;15.20;;;;;;5057828;28;20801;-71
2023/05/24 10:43:25;;;;;;;25.02;6.40;;;16.50;18.30;;;;;;5054786;28;20382;-71
2023/05/24 10:45:51;;;;;;;21.33;5.22;;;16.50;17.30;;;;;;5054667;28;20396;-72
2023/05/24 10:48:23;;;;;;;20.38;5.00;;;16.00;17.10;;;;;;5055296;28;20382;-71
2023/05/24 10:50:48;;;;;;;16.27;5.75;;;15.90;17.90;;;;;;5059444;28;20381;-73
2023/05/24 10:53:21;;;;;;;14.93;5.35;;;16.10;16.80;;;;;;5057661;28;20420;-71
2023/05/24 10:56:07;;;;;;;18.50;5.80;;;16.20;16.70;;;;;;5055434;28;20992;-71
2023/05/24 10:58:32;;;;;;;23.65;6.28;;;16.20;17.30;;;;;;5056516;28;20392;-72
2023/05/24 11:00:58;;;;;;;16.60;5.65;;;16.50;17.30;;;;;;5056172;28;20405;-72
2023/05/24 11:03:24;;;;;;;16.88;6.40;;;16.70;16.40;;;;;;5057415;28;20378;-72
2023/05/24 11:05:50;;;;;;;22.25;7.60;;;16.50;15.00;;;;;;5054240;28;20393;-70
2023/05/24 11:08:32;;;;;;;23.48;7.68;;;16.50;14.80;;;;;;5055809;28;20374;-71
2023/05/24 11:11:15;;;;;;;18.50;8.65;;;16.20;15.20;;;;;;5054076;28;20397;-69
2023/05/24 11:13:41;;;;;;;18.08;8.32;;;16.30;15.70;;;;;;5054050;28;20400;-72
2023/05/24 11:16:07;;;;;;;19.25;8.45;;;16.80;15.10;;;;;;5054622;28;20389;-72
2023/05/24 11:18:38;;;;;;;21.90;8.93;;;17.30;14.60;;;;;;5053740;28;20443;-71
2023/05/24 11:21:05;;;;;;;24.02;9.60;;;17.50;14.10;;;;;;5052319;28;20789;-71
2023/05/24 11:23:31;;;;;;;18.02;8.48;;;17.50;14.00;;;;;;5067736;28;20400;-71
2023/05/24 11:25:57;;;;;;;27.58;9.30;;;17.60;13.80;;;;;;5066763;28;20718;-72
2023/05/24 11:28:23;;;;;;;20.55;8.52;;;17.40;14.20;;;;;;5063592;28;20461;-71
2023/05/24 11:30:49;;;;;;;22.47;7.73;;;17.20;14.90;;;;;;5068710;28;20382;-72
2023/05/24 11:33:21;;;;;;;24.77;7.15;;;16.90;14.60;;;;;;5064034;28;20385;-71
2023/05/24 11:35:51;;;;;;;20.73;6.20;;;16.40;15.10;;;;;;5066126;28;20392;-72
2023/05/24 11:38:17;;;;;;;20.80;6.95;;;16.00;16.00;;;;;;5067283;28;20386;-72
2023/05/24 11:40:45;;;;;;;18.27;6.25;;;15.90;16.50;;;;;;5068171;28;20394;-72
2023/05/24 11:43:18;;;;;;;17.37;6.13;;;15.90;16.70;;;;;;5066693;28;20411;-71
2023/05/24 11:45:47;;;;;;;17.13;5.50;;;15.90;16.20;;;;;;5065271;28;20384;-72
2023/05/24 11:48:14;;;;;;;14.15;5.43;;;15.90;16.60;;;;;;5056353;28;20389;-71
2023/05/24 11:50:42;;;;;;;17.27;5.85;;;16.10;16.30;;;;;;5055551;28;20840;-71
2023/05/24 11:53:15;;;;;;;10.73;5.13;;;16.30;16.20;;;;;;5056926;28;20400;-72
2023/05/24 11:55:41;;;;;;;13.55;4.75;;;16.40;16.00;;;;;;5063574;28;20388;-72
2023/05/24 11:58:16;;;;;;;15.27;4.60;;;16.60;15.60;;;;;;5056039;28;20413;-71
2023/05/24 12:00:42;;;;;;;21.73;5.15;;;16.40;15.90;;;;;;5053845;28;20412;-70
2023/05/24 12:03:08;;;;;;;15.43;5.10;;;16.20;15.70;;;;;;5052963;28;20476;-71
2023/05/24 12:05:35;;;;;;;19.08;4.72;;;16.40;15.80;;;;;;5057334;28;20394;-71
2023/05/24 12:08:04;;;;;;;14.63;4.80;;;16.20;15.40;;;;;;5055869;28;20381;-72
2023/05/24 12:10:40;;;;;;;15.50;4.73;;;16.20;15.80;;;;;;5053568;28;20414;-72
2023/05/24 12:13:24;;;;;;;18.90;4.70;;;16.20;15.90;;;;;;5053629;28;20819;-71
2023/05/24 12:15:53;;;;;;;19.40;5.00;;;16.60;16.40;;;;;;5053206;28;20397;-70
2023/05/24 12:18:24;;;;;;;23.35;6.30;;;16.90;15.40;;;;;;5052897;28;20484;-69
2023/05/24 12:20:51;;;;;;;14.68;5.07;;;16.90;15.60;;;;;;5052907;28;20470;-72
2023/05/24 12:23:20;;;;;;;21.30;5.95;;;16.90;15.40;;;;;;5051672;28;20405;-70
2023/05/24 12:25:46;;;;;;;25.33;6.00;;;17.20;15.70;;;;;;5052184;28;20404;-72
2023/05/24 12:28:12;;;;;;;16.00;4.83;;;17.10;15.00;;;;;;5053112;28;20382;-73
2023/05/24 12:30:43;;;;;;;18.88;5.50;;;16.60;15.20;;;;;;5052595;28;20520;-71
2023/05/24 12:33:11;;;;;;;13.27;5.20;;;16.60;15.80;;;;;;5052464;28;21360;-70
2023/05/24 12:35:40;;;;;;;19.50;5.65;;;16.70;16.50;;;;;;5052728;28;20476;-70
2023/05/24 12:38:09;;;;;;;21.27;6.38;;;17.30;15.30;;;;;;5054009;28;20393;-72